Micco, Florida
Current Conditions -  °F | °C
As of 6:53 AM on Thursday 27 Nov 2014 (Local Time) from KVRB Reporting Station
Clear Clear  
Wind Chill: 41°   Ceiling: Unl
Heat Index: 45°   Visibility: 10mi
Dew Point: 43°   Wind: 8mph
Humidity: 93%   Direction: 320°NW
Pressure: 30.26"   Gusts: NA
Location:  27.8606°N, 80.5442°W
Report Text: KVRB 271153Z AUTO 32007KT 10SM CLR 07/06 A3026 RMK AO2 SLP247 70031 T00720061 10094 20072 53016
Loading
Personal Weather Stations






























Interactive Weather Map New forecast layout! Learn more

10-Day Weather Forecast

Advertisements
Track Severe Weather on mobile